Time;durP1;ratioP1;P1;durP2;ratioP2;P2;SDS_P1;SDS_P2;PMS_P1;PMS_P2;Temp;Humidity;BMP_temperature;BMP_pressure;BME280_temperature;BME280_humidity;BME280_pressure;Samples;Min_cycle;Max_cycle;Signal;HPM_P1;HPM_P2
2023/08/07 00:00:09;;;;;;;0.25;0.25;;;;;;;22.92;47.50;98853.44;5022493;28;20037;-94
2023/08/07 00:02:35;;;;;;;0.52;0.52;;;;;;;22.85;47.67;98871.06;5035740;28;20040;-93
2023/08/07 00:05:00;;;;;;;0.30;0.15;;;;;;;23.06;47.46;98890.00;5039368;28;20029;-94
2023/08/07 00:07:25;;;;;;;0.30;0.28;;;;;;;23.03;47.53;98866.91;5037091;28;20035;-95
2023/08/07 00:09:51;;;;;;;0.10;0.10;;;;;;;23.07;47.59;98878.25;5035764;28;20518;-93
2023/08/07 00:12:17;;;;;;;1.38;1.23;;;;;;;22.71;48.50;98862.25;5054220;28;20029;-93
2023/08/07 00:14:42;;;;;;;0.70;0.50;;;;;;;22.58;48.39;98848.03;5054690;28;20029;-91
2023/08/07 00:17:08;;;;;;;0.10;0.10;;;;;;;22.79;48.20;98871.53;5068048;28;20009;-93
2023/08/07 00:19:37;;;;;;;0.25;0.25;;;;;;;22.74;48.35;98863.84;5045399;28;20073;-94
2023/08/07 00:22:06;;;;;;;0.10;0.10;;;;;;;22.40;47.99;98833.34;5053319;28;20132;-94
2023/08/07 00:24:32;;;;;;;0.20;0.20;;;;;;;22.75;47.57;98862.84;5055813;28;20037;-95
2023/08/07 00:26:57;;;;;;;0.25;0.25;;;;;;;22.50;48.33;98840.56;5035439;28;20029;-92
2023/08/07 00:29:23;;;;;;;0.20;0.20;;;;;;;22.88;48.20;98876.19;5034943;28;20051;-93
2023/08/07 00:31:48;;;;;;;0.25;0.25;;;;;;;22.86;47.65;98883.50;5034564;28;20167;-92
2023/08/07 00:34:13;;;;;;;0.10;0.10;;;;;;;22.95;47.57;98898.06;5049127;28;20029;-91
2023/08/07 00:36:41;;;;;;;0.38;0.30;;;;;;;22.99;47.38;98876.19;5034619;28;20077;-91
2023/08/07 00:39:09;;;;;;;0.10;0.10;;;;;;;22.85;47.29;98852.25;5051705;28;20025;-92
2023/08/07 00:41:35;;;;;;;0.30;0.15;;;;;;;22.93;47.54;98870.44;5052118;28;20486;-92
2023/08/07 00:44:00;;;;;;;0.20;0.20;;;;;;;22.97;47.79;98888.91;5052031;28;20029;-93
2023/08/07 00:46:27;;;;;;;0.15;0.15;;;;;;;22.90;48.03;98922.63;5034115;28;20039;-95
2023/08/07 00:48:56;;;;;;;0.30;0.30;;;;;;;22.96;47.99;98910.53;5033721;28;20553;-93
2023/08/07 00:51:23;;;;;;;0.55;0.20;;;;;;;22.81;48.53;98913.44;5049764;28;20056;-90
2023/08/07 00:53:49;;;;;;;0.00;0.00;;;;;;;22.59;48.63;98892.75;5053143;28;20024;-95
2023/08/07 00:56:15;;;;;;;0.20;0.20;;;;;;;22.74;48.68;98903.28;5054509;28;20028;-92
2023/08/07 00:58:45;;;;;;;0.17;0.17;;;;;;;22.18;49.55;98857.34;5072332;28;20032;-92
2023/08/07 01:01:11;;;;;;;0.35;0.20;;;;;;;22.43;49.63;98892.22;5071654;28;20035;-92
2023/08/07 01:03:39;;;;;;;6.80;0.95;;;;;;;22.60;49.10;98905.22;5053435;28;20031;-89
2023/08/07 01:06:04;;;;;;;0.15;0.15;;;;;;;22.56;49.38;98893.00;5054548;28;20111;-93
2023/08/07 01:08:30;;;;;;;0.40;0.38;;;;;;;22.46;49.69;98911.66;5071744;28;20063;-94
2023/08/07 01:11:23;;;;;;;0.30;0.30;;;;;;;22.55;49.72;98925.38;5061395;28;20115;-93
2023/08/07 01:14:08;;;;;;;0.10;0.10;;;;;;;22.63;49.73;98941.75;5055183;28;20421;-94
2023/08/07 01:16:44;;;;;;;0.20;0.20;;;;;;;22.63;49.81;98941.75;5055307;28;20032;-95
2023/08/07 01:19:24;;;;;;;1.27;0.32;;;;;;;22.63;49.46;98910.38;5072153;28;20096;-94
2023/08/07 01:21:49;;;;;;;6.60;0.73;;;;;;;23.06;48.88;98943.78;5054750;28;20031;-94
2023/08/07 01:24:15;;;;;;;0.10;0.10;;;;;;;22.71;49.58;98932.13;5053812;28;20119;-94
2023/08/07 01:26:45;;;;;;;0.20;0.17;;;;;;;22.20;50.86;98902.00;5053841;28;20104;-93
2023/08/07 01:29:29;;;;;;;0.68;0.60;;;;;;;22.28;50.68;98927.31;5054268;28;20032;-94
2023/08/07 01:31:57;;;;;;;0.30;0.30;;;;;;;22.50;50.58;98941.84;5051807;28;20062;-94
2023/08/07 01:34:25;;;;;;;0.30;0.30;;;;;;;21.86;51.52;98885.75;5054530;28;20029;-92
2023/08/07 01:36:53;;;;;;;0.40;0.38;;;;;;;22.01;51.79;98908.75;5053886;28;20040;-93
2023/08/07 01:39:20;;;;;;;0.88;0.50;;;;;;;21.99;50.94;98890.06;5052833;28;20036;-92
2023/08/07 01:41:46;;;;;;;0.52;0.52;;;;;;;22.09;51.27;98951.16;5072296;28;20043;-90
2023/08/07 01:44:12;;;;;;;0.13;0.13;;;;;;;21.89;51.67;98918.59;5071439;28;20036;-92
2023/08/07 01:46:39;;;;;;;0.10;0.10;;;;;;;22.10;51.35;98931.38;5071779;28;20043;-96
2023/08/07 01:49:05;;;;;;;0.10;0.10;;;;;;;21.75;52.17;98942.91;5052623;28;20039;-93
2023/08/07 01:51:30;;;;;;;0.30;0.28;;;;;;;21.99;52.25;98973.31;5072445;28;20131;-96
2023/08/07 01:53:57;;;;;;;1.05;0.90;;;;;;;22.07;52.03;98969.22;5037555;28;20042;-95
2023/08/07 01:56:24;;;;;;;0.22;0.22;;;;;;;22.02;52.44;98971.41;5052861;28;20033;-94
2023/08/07 01:58:49;;;;;;;0.45;0.40;;;;;;;21.86;52.51;98956.41;5071733;28;20482;-95
2023/08/07 02:01:15;;;;;;;0.17;0.10;;;;;;;21.61;53.34;98955.53;5053515;28;20044;-94
2023/08/07 02:03:40;;;;;;;0.52;0.52;;;;;;;21.85;53.19;98964.56;5053542;28;20033;-94
2023/08/07 02:06:06;;;;;;;0.22;0.22;;;;;;;21.71;53.25;98949.47;5053334;28;20028;-95
2023/08/07 02:08:31;;;;;;;0.70;0.57;;;;;;;21.59;53.92;98970.00;5052984;28;20029;-95
2023/08/07 02:10:57;;;;;;;0.73;0.70;;;;;;;21.16;55.00;98944.38;5052919;28;20032;-94
2023/08/07 02:13:22;;;;;;;0.20;0.20;;;;;;;21.25;54.69;98961.66;5073618;28;20024;-95
2023/08/07 02:15:48;;;;;;;0.20;0.20;;;;;;;21.15;55.74;98987.38;5054850;28;20051;-96
2023/08/07 02:18:14;;;;;;;0.73;0.30;;;;;;;21.00;55.64;98962.53;5073349;28;20048;-95
2023/08/07 02:20:41;;;;;;;0.03;0.03;;;;;;;20.91;56.21;98946.13;5053255;28;20041;-95
2023/08/07 02:23:07;;;;;;;0.20;0.20;;;;;;;20.87;56.25;98974.09;5054043;28;20032;-94
2023/08/07 02:25:32;;;;;;;0.60;0.60;;;;;;;20.90;56.67;98976.56;5053175;28;20028;-93
2023/08/07 02:27:58;;;;;;;0.82;0.70;;;;;;;20.86;56.38;98958.13;5053030;28;20047;-96
2023/08/07 02:30:23;;;;;;;2.03;0.95;;;;;;;20.80;56.56;98946.00;5053887;28;20029;-96
2023/08/07 02:32:50;;;;;;;0.40;0.32;;;;;;;20.80;56.69;98975.47;5071624;28;20465;-96
2023/08/07 02:35:15;;;;;;;0.95;0.65;;;;;;;20.86;56.78;98976.88;5052922;28;20067;-96
2023/08/07 02:37:41;;;;;;;0.30;0.30;;;;;;;20.61;56.96;98962.47;5051742;28;20041;-96
2023/08/07 02:40:07;;;;;;;0.47;0.38;;;;;;;21.16;56.29;99011.41;5070369;28;20041;-94
2023/08/07 02:42:35;;;;;;;0.50;0.50;;;;;;;20.96;56.62;98994.06;5051615;28;20220;-94
2023/08/07 02:45:00;;;;;;;0.98;0.40;;;;;;;21.10;56.54;98996.63;5036611;28;20033;-95
2023/08/07 02:47:26;;;;;;;0.60;0.40;;;;;;;21.03;56.77;98973.88;5051559;28;20144;-94
2023/08/07 02:49:51;;;;;;;1.00;0.43;;;;;;;20.89;57.43;99004.31;5052385;28;20049;-95
2023/08/07 02:52:17;;;;;;;0.30;0.30;;;;;;;20.95;57.29;98997.69;5052400;28;20028;-93
2023/08/07 02:54:44;;;;;;;0.55;0.50;;;;;;;20.88;57.43;99013.34;5071103;28;20025;-94
2023/08/07 02:57:09;;;;;;;0.10;0.10;;;;;;;20.63;57.87;98983.78;5052533;28;20036;-94
2023/08/07 02:59:36;;;;;;;0.70;0.70;;;;;;;20.64;58.11;98989.03;5052957;28;20099;-95
2023/08/07 03:02:01;;;;;;;0.50;0.50;;;;;;;20.79;57.40;99010.41;5071115;28;20126;-95
2023/08/07 03:04:32;;;;;;;0.22;0.22;;;;;;;20.95;57.56;99015.63;5061602;28;20409;-95
2023/08/07 03:07:01;;;;;;;1.27;0.52;;;;;;;20.86;57.95;99025.97;5077257;28;20031;-96
2023/08/07 03:09:26;;;;;;;0.55;0.50;;;;;;;20.42;58.75;99020.91;5056611;28;20032;-96
2023/08/07 03:11:52;;;;;;;1.63;0.75;;;;;;;20.32;59.15;99008.13;5055618;28;20036;-96
2023/08/07 03:14:17;;;;;;;0.68;0.55;;;;;;;20.48;58.82;98994.59;5056101;28;20399;-95
2023/08/07 03:16:49;;;;;;;0.98;0.80;;;;;;;20.62;59.07;99049.91;5054213;28;20029;-95
2023/08/07 03:19:15;;;;;;;0.65;0.60;;;;;;;20.54;58.41;99004.88;5076553;28;20029;-93
2023/08/07 03:21:41;;;;;;;0.45;0.43;;;;;;;20.62;58.40;99022.25;5058316;28;20036;-95
2023/08/07 03:24:08;;;;;;;0.85;0.60;;;;;;;20.92;58.45;99049.69;5055783;28;20035;-96
2023/08/07 03:26:33;;;;;;;0.65;0.45;;;;;;;20.66;58.60;99048.75;5042640;28;20064;-96
2023/08/07 03:28:59;;;;;;;0.47;0.47;;;;;;;20.58;58.90;99043.88;5040674;28;20040;-88
2023/08/07 03:31:24;;;;;;;0.57;0.45;;;;;;;20.44;59.12;99035.91;5076015;28;20032;-96
2023/08/07 03:33:50;;;;;;;1.77;0.90;;;;;;;20.55;58.62;99057.50;5065891;28;20033;-96
2023/08/07 03:36:36;;;;;;;;;;;;;;;;;;;;;
2023/08/07 03:39:07;;;;;;;0.50;0.22;;;;;;;20.23;59.23;99018.59;5057256;28;20063;-96
2023/08/07 03:41:33;;;;;;;0.30;0.30;;;;;;;20.57;58.87;99052.03;5040971;28;20041;-94
2023/08/07 03:43:59;;;;;;;0.35;0.35;;;;;;;20.73;58.84;99063.47;5056037;28;20036;-96
2023/08/07 03:46:28;;;;;;;0.50;0.50;;;;;;;20.78;58.39;99059.66;5057931;28;20044;-96
2023/08/07 03:48:55;;;;;;;1.25;0.57;;;;;;;20.83;57.77;99036.91;5077792;28;20029;-96
2023/08/07 03:51:22;;;;;;;2.08;0.88;;;;;;;21.02;57.79;99071.38;5054232;28;20047;-96
2023/08/07 03:53:49;;;;;;;0.28;0.22;;;;;;;20.75;57.94;99015.16;5071219;28;20042;-95
2023/08/07 03:56:16;;;;;;;1.13;1.00;;;;;;;20.96;57.48;99047.69;5055683;28;20043;-96
2023/08/07 03:58:41;;;;;;;3.60;1.08;;;;;;;21.13;57.81;99075.13;5073691;28;20020;-96
2023/08/07 04:01:08;;;;;;;1.15;0.73;;;;;;;21.09;57.79;99087.91;5054431;28;20090;-94
2023/08/07 04:03:33;;;;;;;0.95;0.50;;;;;;;20.90;57.31;99054.31;5058311;28;20032;-96
2023/08/07 04:06:00;;;;;;;0.60;0.45;;;;;;;21.18;57.41;99071.19;5055249;28;20028;-94
2023/08/07 04:08:25;;;;;;;0.47;0.47;;;;;;;21.27;57.51;99067.00;5072578;28;20028;-96
2023/08/07 04:11:00;;;;;;;0.32;0.32;;;;;;;21.07;57.42;99071.91;5073803;28;20510;-96
2023/08/07 04:13:26;;;;;;;0.23;0.23;;;;;;;20.99;57.84;99074.28;5074472;28;20421;-93
2023/08/07 04:15:52;;;;;;;0.57;0.57;;;;;;;20.88;57.87;99063.41;5072828;28;20040;-94
2023/08/07 04:18:17;;;;;;;0.43;0.38;;;;;;;21.17;57.79;99090.91;5069172;28;20430;-93
2023/08/07 04:20:48;;;;;;;3.95;0.82;;;;;;;21.38;57.33;99085.91;5053923;28;20060;-93
2023/08/07 04:23:14;;;;;;;0.40;0.40;;;;;;;21.62;56.38;99120.06;5071574;28;20036;-94
2023/08/07 04:25:39;;;;;;;2.38;0.60;;;;;;;21.51;56.47;99091.28;5072991;28;20055;-95
2023/08/07 04:28:05;;;;;;;0.30;0.20;;;;;;;21.59;55.95;99074.66;5071726;28;20597;-93
2023/08/07 04:30:30;;;;;;;0.90;0.57;;;;;;;21.48;56.36;99061.13;5053464;28;20052;-93
2023/08/07 04:32:56;;;;;;;0.30;0.30;;;;;;;21.58;56.15;99067.56;5072365;28;20506;-93
2023/08/07 04:35:21;;;;;;;0.25;0.25;;;;;;;21.61;55.68;99067.34;5054365;28;20094;-93
2023/08/07 04:37:47;;;;;;;0.57;0.40;;;;;;;21.91;55.55;99088.47;5070851;28;20028;-90
2023/08/07 04:40:12;;;;;;;0.60;0.38;;;;;;;21.73;55.44;99068.31;5070969;28;20103;-93
2023/08/07 04:42:38;;;;;;;0.30;0.30;;;;;;;21.87;55.74;99084.28;5071870;28;20032;-94
2023/08/07 04:45:04;;;;;;;1.15;1.05;;;;;;;21.76;55.45;99071.63;5071382;28;20112;-93
2023/08/07 04:47:29;;;;;;;0.15;0.15;;;;;;;21.71;55.56;99079.16;5054318;28;20086;-95
2023/08/07 04:49:55;;;;;;;0.57;0.57;;;;;;;21.93;54.99;99078.47;5071664;28;20055;-93
2023/08/07 04:52:20;;;;;;;1.23;0.43;;;;;;;21.97;54.67;99119.41;5072388;28;20042;-91
2023/08/07 04:54:46;;;;;;;1.05;0.65;;;;;;;21.85;55.11;99088.91;5071337;28;20036;-95
2023/08/07 04:57:11;;;;;;;0.20;0.20;;;;;;;22.08;54.62;99083.72;5054115;28;20106;-93
2023/08/07 04:59:37;;;;;;;0.20;0.20;;;;;;;22.20;54.45;99104.31;5053794;28;20051;-95
2023/08/07 05:02:04;;;;;;;0.30;0.30;;;;;;;22.10;53.99;99108.63;5071435;28;20143;-93
2023/08/07 05:04:29;;;;;;;0.43;0.43;;;;;;;22.24;54.05;99089.69;5053325;28;20064;-92
2023/08/07 05:06:55;;;;;;;9.05;1.38;;;;;;;22.42;53.48;99124.28;5071350;28;20083;-95
2023/08/07 05:09:20;;;;;;;0.95;0.60;;;;;;;22.35;53.11;99075.50;5071356;28;20033;-94
2023/08/07 05:11:46;;;;;;;0.43;0.43;;;;;;;22.70;52.94;99115.88;5053168;28;20036;-95
2023/08/07 05:14:11;;;;;;;0.43;0.43;;;;;;;22.78;52.50;99115.31;5071561;28;20355;-90
2023/08/07 05:16:37;;;;;;;0.22;0.20;;;;;;;22.87;51.82;99113.78;5070925;28;20105;-87
2023/08/07 05:19:02;;;;;;;0.55;0.30;;;;;;;22.81;51.68;99122.28;5071326;28;20038;-89
2023/08/07 05:21:28;;;;;;;0.40;0.40;;;;;;;22.89;52.08;99122.56;5070743;28;20028;-91
2023/08/07 05:23:55;;;;;;;0.28;0.28;;;;;;;22.84;51.10;99117.53;5070802;28;20032;-89
2023/08/07 05:26:21;;;;;;;1.15;0.80;;;;;;;22.90;51.16;99140.44;5071121;28;20035;-88
2023/08/07 05:28:47;;;;;;;0.52;0.22;;;;;;;22.62;50.96;99096.78;5071374;28;20032;-94
2023/08/07 05:31:12;;;;;;;1.17;1.05;;;;;;;23.15;50.96;99154.75;5054477;28;20040;-93
2023/08/07 05:33:38;;;;;;;0.25;0.25;;;;;;;23.18;50.22;99125.78;5071890;28;20024;-92
2023/08/07 05:36:06;;;;;;;0.38;0.38;;;;;;;23.22;49.67;99134.47;5072223;28;20037;-94
2023/08/07 05:38:31;;;;;;;0.20;0.20;;;;;;;22.82;49.78;99068.41;5071123;28;20039;-95
2023/08/07 05:40:57;;;;;;;0.30;0.30;;;;;;;23.04;49.86;99099.03;5054445;28;20024;-90
2023/08/07 05:43:23;;;;;;;0.40;0.38;;;;;;;23.19;50.21;99127.50;5070290;28;20024;-90
2023/08/07 05:45:49;;;;;;;0.30;0.30;;;;;;;23.18;49.72;99117.69;5089002;28;20032;-94
2023/08/07 05:48:16;;;;;;;0.25;0.25;;;;;;;23.73;50.06;99142.19;5058042;28;20422;-95
2023/08/07 05:50:43;;;;;;;0.57;0.57;;;;;;;23.84;48.84;99132.41;5060232;28;20473;-90
2023/08/07 05:53:08;;;;;;;0.85;0.85;;;;;;;23.90;47.99;99113.09;5050985;28;20106;-91
2023/08/07 05:55:34;;;;;;;0.22;0.20;;;;;;;23.99;47.98;99133.03;5050876;28;20029;-91
2023/08/07 05:57:59;;;;;;;1.17;0.70;;;;;;;24.14;48.21;99147.97;5048171;28;20059;-92
2023/08/07 06:00:25;;;;;;;2.03;0.68;;;;;;;24.25;47.75;99158.78;5049179;28;20029;-95
2023/08/07 06:02:51;;;;;;;0.20;0.20;;;;;;;24.19;47.76;99151.19;5051782;28;20044;-94
2023/08/07 06:05:16;;;;;;;1.17;0.90;;;;;;;23.97;47.88;99135.84;5051393;28;20406;-96
2023/08/07 06:07:42;;;;;;;0.60;0.60;;;;;;;24.00;47.81;99118.59;5051436;28;20339;-92
2023/08/07 06:10:08;;;;;;;1.02;0.70;;;;;;;24.03;47.56;99111.13;5051263;28;20033;-92
2023/08/07 06:12:33;;;;;;;0.75;0.35;;;;;;;24.27;46.48;99104.75;5049104;28;20134;-94
2023/08/07 06:14:59;;;;;;;0.63;0.63;;;;;;;24.52;46.69;99127.84;5050925;28;20025;-89
2023/08/07 06:17:25;;;;;;;0.28;0.28;;;;;;;24.51;45.58;99093.78;5050198;28;20450;-91
2023/08/07 06:19:51;;;;;;;0.22;0.22;;;;;;;24.34;46.09;99105.94;5049764;28;20127;-90
2023/08/07 06:22:17;;;;;;;0.32;0.32;;;;;;;24.87;45.92;99131.34;5050194;28;20463;-93
2023/08/07 06:24:42;;;;;;;4.70;1.20;;;;;;;24.92;45.56;99118.34;5031533;28;20036;-92
2023/08/07 06:27:08;;;;;;;0.80;0.80;;;;;;;25.27;44.54;99118.06;5050389;28;20033;-92
2023/08/07 06:29:33;;;;;;;0.50;0.50;;;;;;;25.75;44.41;99108.56;5049769;28;20032;-93
2023/08/07 06:31:59;;;;;;;0.22;0.20;;;;;;;25.97;43.16;99114.78;5050640;28;20025;-92
2023/08/07 06:34:24;;;;;;;2.38;0.95;;;;;;;26.09;42.01;99111.03;5031116;28;20037;-91
2023/08/07 06:36:50;;;;;;;1.20;0.55;;;;;;;25.92;43.22;99113.34;5050495;28;20036;-92
2023/08/07 06:39:15;;;;;;;0.40;0.40;;;;;;;25.58;44.38;99092.97;5050515;28;20037;-92
2023/08/07 06:41:42;;;;;;;1.77;0.82;;;;;;;25.73;43.80;99105.13;5031987;28;20060;-94
2023/08/07 06:44:07;;;;;;;3.80;0.75;;;;;;;25.98;43.33;99100.31;5031410;28;20035;-91
2023/08/07 06:46:33;;;;;;;0.22;0.20;;;;;;;25.92;42.70;99116.03;5032718;28;20443;-94
2023/08/07 06:48:58;;;;;;;0.35;0.35;;;;;;;25.95;43.24;99095.13;5049557;28;20037;-94
2023/08/07 06:51:24;;;;;;;0.50;0.40;;;;;;;26.16;42.36;99106.78;5045235;28;20045;-94
2023/08/07 06:53:51;;;;;;;0.40;0.40;;;;;;;26.50;42.38;99141.59;5049460;28;20033;-91
2023/08/07 06:56:16;;;;;;;0.52;0.35;;;;;;;26.08;41.24;99122.81;5048279;28;20037;-91
2023/08/07 06:58:43;;;;;;;0.63;0.32;;;;;;;26.18;41.48;99123.72;5043610;28;20156;-94
2023/08/07 07:01:10;;;;;;;1.65;1.02;;;;;;;26.55;40.60;99114.13;5043023;28;20037;-91
2023/08/07 07:03:36;;;;;;;0.25;0.25;;;;;;;26.29;41.57;99094.84;5051757;28;20068;-93
2023/08/07 07:06:02;;;;;;;0.40;0.30;;;;;;;26.39;41.74;99133.59;5064339;28;20456;-91
2023/08/07 07:08:27;;;;;;;0.38;0.30;;;;;;;26.43;40.70;99092.63;5036021;28;20033;-93
2023/08/07 07:10:53;;;;;;;0.52;0.52;;;;;;;26.43;39.80;99106.16;5070457;28;20490;-92
2023/08/07 07:13:20;;;;;;;0.38;0.30;;;;;;;26.53;41.18;99114.28;5064742;28;20063;-94
2023/08/07 07:15:46;;;;;;;0.65;0.57;;;;;;;26.58;40.61;99121.97;5055839;28;20021;-94
2023/08/07 07:18:15;;;;;;;0.20;0.20;;;;;;;26.92;40.46;99144.09;5073806;28;20085;-94
2023/08/07 07:20:40;;;;;;;0.30;0.30;;;;;;;27.04;39.93;99152.09;5071714;28;20029;-95
2023/08/07 07:23:06;;;;;;;1.15;0.93;;;;;;;26.92;38.50;99141.41;5055347;28;20082;-92
2023/08/07 07:25:31;;;;;;;0.45;0.43;;;;;;;26.90;40.04;99140.69;5052595;28;20063;-95
2023/08/07 07:27:57;;;;;;;0.30;0.30;;;;;;;26.82;39.77;99094.56;5035986;28;20510;-93
2023/08/07 07:30:22;;;;;;;2.05;0.90;;;;;;;27.10;38.15;99094.69;5063655;28;20028;-93
2023/08/07 07:32:50;;;;;;;1.63;0.47;;;;;;;27.47;38.47;99123.75;5082163;28;20421;-92
2023/08/07 07:35:15;;;;;;;1.23;1.00;;;;;;;27.40;39.04;99131.59;5063029;28;20048;-94
2023/08/07 07:37:41;;;;;;;1.08;0.77;;;;;;;27.37;38.54;99114.78;5082699;28;20450;-92
2023/08/07 07:40:08;;;;;;;0.35;0.35;;;;;;;27.64;36.83;99128.41;5082298;28;20031;-90
2023/08/07 07:42:34;;;;;;;0.30;0.30;;;;;;;27.36;37.68;99119.34;5088569;28;20129;-93
2023/08/07 07:45:00;;;;;;;2.70;0.32;;;;;;;27.72;37.36;99124.13;5064500;28;20179;-93
2023/08/07 07:47:25;;;;;;;0.57;0.40;;;;;;;27.97;36.90;99125.34;5079427;28;20549;-92
2023/08/07 07:50:04;;;;;;;0.25;0.25;;;;;;;27.56;35.52;99109.34;5073583;28;20060;-91
2023/08/07 07:52:30;;;;;;;0.30;0.20;;;;;;;28.01;36.42;99132.19;5073216;28;20037;-91
2023/08/07 07:54:56;;;;;;;0.90;0.50;;;;;;;28.41;35.59;99117.44;5079271;28;20025;-88
2023/08/07 07:57:21;;;;;;;0.73;0.40;;;;;;;28.55;34.99;99125.06;5084669;28;20047;-92
2023/08/07 07:59:48;;;;;;;1.55;0.85;;;;;;;28.53;34.92;99143.38;5059581;28;20025;-95
2023/08/07 08:02:17;;;;;;;0.40;0.30;;;;;;;28.76;36.80;99145.66;5060979;28;20058;-96
2023/08/07 08:04:42;;;;;;;0.93;0.77;;;;;;;28.87;36.45;99131.00;5080361;28;20082;-96
2023/08/07 08:07:13;;;;;;;0.43;0.43;;;;;;;28.47;36.20;99106.00;5073751;28;20025;-96
2023/08/07 08:09:40;;;;;;;0.93;0.30;;;;;;;28.90;34.33;99133.41;5077405;28;20494;-96
2023/08/07 08:12:06;;;;;;;0.88;0.50;;;;;;;28.72;34.74;99131.56;5055074;28;20033;-94
2023/08/07 08:14:31;;;;;;;0.93;0.52;;;;;;;28.45;36.20;99071.88;5055560;28;20101;-93
2023/08/07 08:16:59;;;;;;;0.32;0.32;;;;;;;29.53;35.63;99110.72;5041711;28;20082;-96
2023/08/07 08:19:27;;;;;;;0.38;0.25;;;;;;;29.03;34.56;99074.19;5075317;28;20047;-95
2023/08/07 08:21:53;;;;;;;0.75;0.50;;;;;;;29.35;35.74;99102.66;5057894;28;20516;-94
2023/08/07 08:24:19;;;;;;;0.55;0.32;;;;;;;29.54;33.40;99079.84;5056647;28;20029;-94
2023/08/07 08:26:44;;;;;;;0.35;0.25;;;;;;;29.60;32.54;99100.09;5072688;28;20020;-93
2023/08/07 08:29:14;;;;;;;0.32;0.32;;;;;;;29.75;32.19;99122.09;5072783;28;20039;-92
2023/08/07 08:31:39;;;;;;;0.90;0.30;;;;;;;29.14;32.68;99062.22;5071960;28;20136;-93
2023/08/07 08:34:05;;;;;;;0.45;0.38;;;;;;;29.09;32.62;99081.69;5056234;28;20989;-90
2023/08/07 08:36:31;;;;;;;0.20;0.20;;;;;;;29.45;32.60;99107.97;5071033;28;20513;-90
2023/08/07 08:38:56;;;;;;;1.45;0.50;;;;;;;29.21;34.07;99062.47;5063062;28;20020;-93
2023/08/07 08:41:24;;;;;;;0.65;0.40;;;;;;;29.25;32.87;99061.16;5056407;28;20036;-91
2023/08/07 08:43:54;;;;;;;0.40;0.30;;;;;;;29.38;33.13;99077.00;5070147;28;20391;-89
2023/08/07 08:46:23;;;;;;;3.20;0.88;;;;;;;29.43;32.73;99091.00;5068255;28;20082;-92
2023/08/07 08:48:51;;;;;;;0.75;0.55;;;;;;;29.88;32.01;99091.81;5071003;28;20024;-89
2023/08/07 08:51:18;;;;;;;0.30;0.30;;;;;;;29.70;31.11;99057.34;5070537;28;20488;-83
2023/08/07 08:53:46;;;;;;;1.30;0.35;;;;;;;29.62;30.07;99043.72;5052551;28;20021;-89
2023/08/07 08:56:12;;;;;;;0.77;0.45;;;;;;;30.22;31.80;99094.50;5070154;28;20077;-91
2023/08/07 08:58:39;;;;;;;0.60;0.30;;;;;;;30.36;31.81;99091.13;5051939;28;20498;-89
2023/08/07 09:01:06;;;;;;;0.55;0.20;;;;;;;30.34;30.33;99076.88;5069856;28;20097;-89
2023/08/07 09:03:32;;;;;;;0.32;0.22;;;;;;;30.38;30.71;99085.53;5057646;28;20025;-89
2023/08/07 09:06:00;;;;;;;0.20;0.20;;;;;;;30.58;30.96;99086.13;5072296;28;20403;-91
2023/08/07 09:08:29;;;;;;;0.75;0.20;;;;;;;30.96;31.03;99082.97;5058585;28;20036;-88
2023/08/07 09:10:55;;;;;;;0.68;0.20;;;;;;;30.93;28.14;99061.53;5075945;28;20020;-89
2023/08/07 09:13:24;;;;;;;0.65;0.40;;;;;;;30.67;30.20;99071.53;5080439;28;20020;-89
2023/08/07 09:15:51;;;;;;;0.28;0.17;;;;;;;30.48;29.52;99067.25;5054938;28;20476;-89
2023/08/07 09:18:18;;;;;;;0.65;0.32;;;;;;;30.07;30.05;99056.19;5063783;28;20098;-87
2023/08/07 09:20:45;;;;;;;1.75;0.60;;;;;;;30.13;30.27;99041.09;5060471;28;20100;-93
2023/08/07 09:23:11;;;;;;;0.22;0.15;;;;;;;30.57;30.18;99046.34;5069819;28;20024;-88
2023/08/07 09:25:36;;;;;;;0.75;0.43;;;;;;;30.85;31.27;99027.81;5080692;28;20032;-92
2023/08/07 09:28:04;;;;;;;1.30;0.45;;;;;;;31.06;29.59;99015.59;5071273;28;20107;-87
2023/08/07 09:30:31;;;;;;;0.40;0.30;;;;;;;31.02;28.96;99046.94;5070012;28;20105;-89
2023/08/07 09:32:58;;;;;;;0.65;0.32;;;;;;;31.17;30.30;99055.25;5051498;28;20320;-85
2023/08/07 09:35:24;;;;;;;0.20;0.20;;;;;;;30.99;29.81;99028.22;5070284;28;20127;-88
2023/08/07 09:37:51;;;;;;;0.40;0.28;;;;;;;31.34;27.92;99054.22;5066574;28;20036;-87
2023/08/07 09:40:17;;;;;;;0.57;0.57;;;;;;;31.13;28.69;99060.19;5051653;28;20032;-86
2023/08/07 09:42:43;;;;;;;0.17;0.10;;;;;;;30.97;28.03;99012.03;5051417;28;20020;-90
2023/08/07 09:45:31;;;;;;;1.85;0.30;;;;;;;31.27;28.28;99053.19;5070210;28;20054;-84
2023/08/07 09:48:00;;;;;;;0.43;0.43;;;;;;;31.41;29.56;99038.88;5069536;28;20032;-83
2023/08/07 09:50:26;;;;;;;0.73;0.30;;;;;;;31.68;28.92;99046.84;5061199;28;20045;-83
2023/08/07 09:52:52;;;;;;;0.47;0.30;;;;;;;31.62;28.27;99055.72;5049104;28;20036;-85
2023/08/07 09:55:18;;;;;;;0.30;0.30;;;;;;;31.56;29.10;99036.31;5049365;28;20051;-86
2023/08/07 09:57:44;;;;;;;0.38;0.30;;;;;;;32.20;27.39;99027.22;5049253;28;20383;-85
2023/08/07 10:00:11;;;;;;;0.45;0.20;;;;;;;32.57;27.59;99019.34;5031403;28;20497;-86
2023/08/07 10:02:38;;;;;;;0.90;0.38;;;;;;;32.55;27.62;99013.19;5047323;28;20126;-87
2023/08/07 10:05:05;;;;;;;0.52;0.35;;;;;;;32.52;26.45;99029.91;5050178;28;20482;-86
2023/08/07 10:07:32;;;;;;;0.47;0.30;;;;;;;31.90;26.52;99020.69;5050267;28;20025;-86
2023/08/07 10:09:59;;;;;;;0.20;0.13;;;;;;;31.77;24.89;99003.00;5048640;28;20082;-85
2023/08/07 10:12:26;;;;;;;0.32;0.15;;;;;;;32.07;25.82;99016.88;5043529;28;20103;-86
2023/08/07 10:14:55;;;;;;;0.50;0.28;;;;;;;32.26;28.46;99031.97;5049104;28;20029;-85
2023/08/07 10:17:24;;;;;;;0.93;0.40;;;;;;;32.51;26.52;99034.53;5049305;28;20018;-85
2023/08/07 10:19:51;;;;;;;0.20;0.13;;;;;;;32.52;26.18;98995.31;5049348;28;20526;-85
2023/08/07 10:22:18;;;;;;;1.17;0.40;;;;;;;32.95;26.36;99009.34;5049159;28;20025;-85
2023/08/07 10:24:47;;;;;;;0.43;0.25;;;;;;;33.27;27.78;99003.75;5048895;28;20636;-87
2023/08/07 10:27:16;;;;;;;0.55;0.25;;;;;;;33.68;26.03;99022.47;5049060;28;20029;-85
2023/08/07 10:29:43;;;;;;;0.28;0.20;;;;;;;33.37;26.25;99018.00;5048666;28;20033;-84
2023/08/07 10:32:10;;;;;;;0.57;0.57;;;;;;;33.31;25.75;99014.13;5049487;28;20021;-85
2023/08/07 10:34:39;;;;;;;1.85;1.25;;;;;;;32.97;26.00;99009.16;5048510;28;20013;-85
2023/08/07 10:37:08;;;;;;;0.30;0.30;;;;;;;32.54;27.13;98990.50;5051210;28;20032;-85
2023/08/07 10:39:34;;;;;;;0.40;0.20;;;;;;;32.51;26.72;99009.97;5053472;28;20120;-84
2023/08/07 10:42:00;;;;;;;0.40;0.40;;;;;;;32.39;28.26;98956.84;5034987;28;20499;-83
2023/08/07 10:44:30;;;;;;;1.65;0.47;;;;;;;32.72;26.50;98976.59;5052837;28;20032;-84
2023/08/07 10:46:57;;;;;;;0.40;0.40;;;;;;;33.14;25.07;98982.53;5052629;28;20558;-84
2023/08/07 10:49:37;;;;;;;0.47;0.47;;;;;;;32.62;25.79;98974.06;5052048;28;20158;-85
2023/08/07 10:52:09;;;;;;;0.70;0.70;;;;;;;32.92;27.07;98984.25;5074153;28;20036;-84
2023/08/07 10:54:46;;;;;;;0.45;0.30;;;;;;;33.30;24.27;98981.53;5073678;28;20036;-85
2023/08/07 10:57:13;;;;;;;0.10;0.10;;;;;;;33.42;25.70;98992.84;5073700;28;20029;-85
2023/08/07 10:59:44;;;;;;;0.40;0.32;;;;;;;33.76;24.05;98997.78;5073327;28;20029;-85
2023/08/07 11:02:12;;;;;;;0.22;0.22;;;;;;;33.65;26.18;98968.16;5072941;28;20483;-85
2023/08/07 11:04:39;;;;;;;0.30;0.30;;;;;;;33.60;26.12;98966.00;5073192;28;20028;-86
2023/08/07 11:07:06;;;;;;;0.30;0.22;;;;;;;33.44;24.27;98964.28;5074119;28;20036;-85
2023/08/07 11:09:33;;;;;;;0.47;0.47;;;;;;;33.66;24.29;98978.91;5073130;28;20033;-85
2023/08/07 11:11:59;;;;;;;0.32;0.32;;;;;;;33.53;24.19;98940.44;5073558;28;20119;-85
2023/08/07 11:14:25;;;;;;;0.68;0.60;;;;;;;33.92;23.64;98979.47;5054639;28;20546;-86
2023/08/07 11:16:52;;;;;;;0.47;0.32;;;;;;;33.76;24.26;98977.78;5072651;28;20031;-85
2023/08/07 11:19:18;;;;;;;2.03;0.73;;;;;;;33.57;24.51;98954.56;5078294;28;20028;-85
2023/08/07 11:21:44;;;;;;;0.45;0.28;;;;;;;33.65;23.88;98958.06;5081121;28;20612;-84
2023/08/07 11:24:14;;;;;;;0.75;0.50;;;;;;;33.49;24.17;98972.78;5086492;28;20111;-86
2023/08/07 11:26:39;;;;;;;0.52;0.30;;;;;;;33.15;24.56;98952.28;5079342;28;20114;-84
2023/08/07 11:29:05;;;;;;;0.22;0.22;;;;;;;33.20;24.41;98954.50;5082538;28;20028;-85
2023/08/07 11:31:30;;;;;;;0.30;0.10;;;;;;;33.03;24.80;98956.50;5080311;28;20025;-85